Time;durP1;ratioP1;P1;durP2;ratioP2;P2;SDS_P1;SDS_P2;PMS_P1;PMS_P2;Temp;Humidity;BMP_temperature;BMP_pressure;BME280_temperature;BME280_humidity;BME280_pressure;Samples;Min_cycle;Max_cycle;Signal;HPM_P1;HPM_P2
2022/12/13 00:02:08;;;;;;;1.30;0.53;;;;;;;9.16;77.66;98311.34;6041000;23;20242;-88
2022/12/13 00:04:33;;;;;;;1.13;0.57;;;;;;;9.28;76.80;98315.81;6040872;23;20546;-88
2022/12/13 00:06:59;;;;;;;0.90;0.40;;;;;;;9.17;76.52;98313.00;6040885;23;20162;-88
2022/12/13 00:09:25;;;;;;;1.83;0.77;;;;;;;9.14;77.24;98314.97;6041167;23;20185;-88
2022/12/13 00:11:51;;;;;;;1.00;0.50;;;;;;;9.11;76.66;98321.22;6040811;23;20234;-88
2022/12/13 00:14:16;;;;;;;1.73;0.80;;;;;;;9.11;76.52;98323.84;6041191;23;20160;-88
2022/12/13 00:16:46;;;;;;;1.20;0.80;;;;;;;9.20;76.16;98330.28;6015938;23;20161;-87
2022/12/13 00:19:13;;;;;;;0.80;0.60;;;;;;;9.06;76.55;98325.91;6016834;23;20155;-88
2022/12/13 00:21:38;;;;;;;1.40;0.70;;;;;;;9.08;77.21;98334.47;6040733;23;20153;-87
2022/12/13 00:24:06;;;;;;;2.33;0.70;;;;;;;9.06;76.63;98333.75;6015947;23;20230;-88
2022/12/13 00:26:31;;;;;;;1.43;0.60;;;;;;;9.10;76.79;98332.63;6015805;23;20606;-87
2022/12/13 00:29:03;;;;;;;1.47;0.77;;;;;;;9.24;76.10;98330.03;6040925;23;20193;-88
2022/12/13 00:31:32;;;;;;;2.43;0.90;;;;;;;9.07;76.82;98339.78;6041122;23;20161;-88
2022/12/13 00:33:58;;;;;;;2.60;0.70;;;;;;;9.05;76.49;98342.50;6040604;23;20483;-87
2022/12/13 00:36:23;;;;;;;2.67;1.17;;;;;;;9.11;76.45;98343.91;6040694;23;20155;-88
2022/12/13 00:38:59;;;;;;;1.50;0.80;;;;;;;9.11;76.23;98350.00;6040612;23;20229;-87
2022/12/13 00:41:35;;;;;;;0.77;0.47;;;;;;;9.25;75.97;98350.00;6041277;23;20145;-88
2022/12/13 00:44:01;;;;;;;1.57;0.90;;;;;;;9.35;76.18;98347.69;6039526;23;20202;-88
2022/12/13 00:46:28;;;;;;;1.77;0.90;;;;;;;9.28;75.71;98359.44;6040793;23;20474;-88
2022/12/13 00:48:56;;;;;;;1.27;0.80;;;;;;;9.35;75.58;98352.91;6015523;23;20191;-88
2022/12/13 00:51:23;;;;;;;3.07;0.80;;;;;;;9.40;75.51;98360.47;6040663;23;20204;-87
2022/12/13 00:53:49;;;;;;;1.40;0.77;;;;;;;9.49;75.25;98367.75;6015544;23;20489;-87
2022/12/13 00:56:20;;;;;;;0.77;0.50;;;;;;;9.52;75.04;98364.97;6040764;23;20326;-88
2022/12/13 00:58:46;;;;;;;1.37;0.70;;;;;;;9.53;74.66;98364.88;6040737;23;20543;-88
2022/12/13 01:01:13;;;;;;;1.60;0.73;;;;;;;9.59;74.73;98358.44;6040293;23;20153;-88
2022/12/13 01:03:40;;;;;;;1.17;0.63;;;;;;;9.69;74.87;98368.25;6040243;23;20228;-88
2022/12/13 01:06:11;;;;;;;1.93;0.97;;;;;;;9.75;74.33;98362.63;6040322;23;20154;-88
2022/12/13 01:08:37;;;;;;;1.30;0.67;;;;;;;9.82;74.03;98358.72;6040565;23;20239;-88
2022/12/13 01:11:04;;;;;;;0.90;0.50;;;;;;;9.78;74.39;98365.06;6039977;23;20584;-88
2022/12/13 01:13:30;;;;;;;1.23;0.70;;;;;;;9.85;73.57;98368.16;6015338;23;20157;-88
2022/12/13 01:15:56;;;;;;;1.57;0.93;;;;;;;9.80;73.88;98360.56;6040172;23;20150;-88
2022/12/13 01:18:21;;;;;;;1.13;0.80;;;;;;;9.73;73.92;98354.03;6040488;23;20153;-88
2022/12/13 01:21:01;;;;;;;1.77;0.80;;;;;;;9.66;74.37;98359.75;6040140;23;20661;-89
2022/12/13 01:23:27;;;;;;;3.03;1.50;;;;;;;9.54;74.58;98355.28;6040501;23;20204;-88
2022/12/13 01:25:53;;;;;;;4.50;2.20;;;;;;;9.57;74.55;98353.28;6039950;23;20157;-88
2022/12/13 01:28:19;;;;;;;3.10;1.97;;;;;;;9.65;74.71;98350.19;6039897;23;20246;-88
2022/12/13 01:30:53;;;;;;;3.97;1.93;;;;;;;9.64;74.62;98356.38;6040087;23;20165;-88
2022/12/13 01:33:18;;;;;;;2.67;1.53;;;;;;;9.60;74.53;98360.94;6015308;23;20265;-89
2022/12/13 01:35:44;;;;;;;2.77;1.20;;;;;;;9.60;74.00;98352.25;6040154;23;20184;-88
2022/12/13 01:38:09;;;;;;;2.63;1.47;;;;;;;9.47;74.90;98351.31;6038905;23;20233;-89
2022/12/13 01:40:42;;;;;;;2.20;1.27;;;;;;;9.51;75.00;98358.06;6038780;23;20162;-89
2022/12/13 01:43:12;;;;;;;2.87;1.30;;;;;;;9.43;74.13;98363.75;6004030;23;20195;-88
2022/12/13 01:45:37;;;;;;;1.73;0.90;;;;;;;9.40;74.07;98357.88;6012509;23;20151;-88
2022/12/13 01:48:07;;;;;;;2.80;0.90;;;;;;;9.42;74.54;98356.84;6011522;23;20179;-88
2022/12/13 01:50:39;;;;;;;2.50;1.00;;;;;;;9.47;74.54;98349.56;6011901;23;20635;-88
2022/12/13 01:53:06;;;;;;;1.23;0.80;;;;;;;9.31;75.25;98355.78;6011558;23;20147;-89
2022/12/13 01:55:35;;;;;;;2.07;1.47;;;;;;;9.23;74.91;98356.25;6011549;23;20579;-89
2022/12/13 01:58:03;;;;;;;2.87;1.00;;;;;;;9.25;75.39;98357.84;6011425;23;20163;-89
2022/12/13 02:00:30;;;;;;;1.53;0.87;;;;;;;9.22;75.48;98359.81;6011519;23;20154;-89
2022/12/13 02:02:58;;;;;;;4.03;1.03;;;;;;;9.12;75.05;98362.09;6011441;23;20153;-88
2022/12/13 02:05:35;;;;;;;2.70;1.33;;;;;;;9.04;74.96;98355.66;6011404;23;20224;-89
2022/12/13 02:08:02;;;;;;;1.90;0.97;;;;;;;9.11;75.45;98351.75;6011679;23;20178;-89
2022/12/13 02:10:30;;;;;;;2.10;1.00;;;;;;;9.14;75.19;98351.59;6011184;23;20151;-88
2022/12/13 02:12:55;;;;;;;1.73;0.93;;;;;;;9.26;74.95;98359.53;6011964;23;20158;-88
2022/12/13 02:15:21;;;;;;;2.33;1.20;;;;;;;9.32;74.65;98355.72;6010488;23;20278;-88
2022/12/13 02:18:13;;;;;;;2.57;1.20;;;;;;;9.41;74.82;98349.91;6011904;23;20596;-88
2022/12/13 02:20:53;;;;;;;3.00;1.00;;;;;;;9.51;74.42;98350.22;6011618;23;20154;-88
2022/12/13 02:23:51;;;;;;;1.80;0.70;;;;;;;9.50;73.58;98348.53;5986371;23;20544;-88
2022/12/13 02:26:31;;;;;;;1.63;1.00;;;;;;;9.43;73.42;98349.84;6011282;23;20578;-89
2022/12/13 02:29:25;;;;;;;1.43;0.90;;;;;;;9.33;72.72;98348.72;5986961;23;20199;-88
2022/12/13 02:31:53;;;;;;;2.13;1.03;;;;;;;9.34;72.61;98358.22;6011819;23;20235;-88
2022/12/13 02:35:00;;;;;;;1.77;0.90;;;;;;;9.36;72.13;98353.72;6011800;23;20159;-88
2022/12/13 02:37:36;;;;;;;1.60;0.97;;;;;;;9.20;71.70;98362.50;5946004;23;20164;-88
2022/12/13 02:40:18;;;;;;;2.63;1.40;;;;;;;9.21;71.40;98365.97;5986560;23;20143;-89
2022/12/13 02:42:53;;;;;;;1.87;0.80;;;;;;;9.21;71.51;98361.59;6017734;23;20587;-88
2022/12/13 02:45:34;;;;;;;3.23;1.67;;;;;;;9.03;70.15;98370.50;6039518;23;20139;-88
2022/12/13 02:48:03;;;;;;;3.10;1.23;;;;;;;9.05;68.80;98359.94;6039782;23;20202;-88
2022/12/13 02:50:31;;;;;;;1.93;1.33;;;;;;;8.58;69.17;98370.53;6014544;23;20221;-90
2022/12/13 02:52:58;;;;;;;4.13;1.07;;;;;;;8.17;69.75;98374.59;6039784;23;20213;-89
2022/12/13 02:55:24;;;;;;;1.53;0.90;;;;;;;8.04;70.41;98377.84;6038300;23;20169;-90
2022/12/13 02:57:50;;;;;;;1.97;1.40;;;;;;;7.74;71.03;98391.69;6039467;23;20237;-90
2022/12/13 03:00:17;;;;;;;2.20;1.33;;;;;;;7.65;71.50;98392.19;6039513;23;20164;-89
2022/12/13 03:03:11;;;;;;;2.07;1.13;;;;;;;7.42;72.55;98380.34;6039320;23;20173;-89
2022/12/13 03:08:44;;;;;;;2.50;1.00;;;;;;;6.91;74.30;98377.78;6039619;23;20174;-89
2022/12/13 03:11:10;;;;;;;3.03;1.40;;;;;;;7.08;74.29;98378.63;6039795;23;20142;-90
2022/12/13 03:14:05;;;;;;;2.03;0.97;;;;;;;7.12;73.51;98379.31;6039682;23;20149;-89
2022/12/13 03:16:39;;;;;;;2.17;1.00;;;;;;;6.80;74.32;98376.56;6011996;23;20221;-90
2022/12/13 03:19:08;;;;;;;4.13;1.30;;;;;;;6.47;75.44;98388.59;6039569;23;20233;-89
2022/12/13 03:21:38;;;;;;;3.23;1.40;;;;;;;6.50;76.16;98393.66;6039235;23;20253;-90
2022/12/13 03:24:04;;;;;;;3.17;1.93;;;;;;;6.53;75.62;98385.72;6039186;23;20153;-90
2022/12/13 03:26:30;;;;;;;2.00;0.93;;;;;;;6.60;76.12;98394.91;6039406;23;20220;-91
2022/12/13 03:28:55;;;;;;;3.23;1.77;;;;;;;6.58;75.88;98391.53;6038455;23;20646;-90
2022/12/13 03:31:21;;;;;;;1.37;0.93;;;;;;;6.45;76.15;98398.25;6039329;23;20225;-90
2022/12/13 03:33:46;;;;;;;4.37;2.00;;;;;;;6.51;76.45;98390.16;6039189;23;20162;-90
2022/12/13 03:36:12;;;;;;;2.90;1.23;;;;;;;6.59;75.24;98395.84;6041656;23;20221;-92
2022/12/13 03:38:39;;;;;;;3.20;1.50;;;;;;;6.46;75.63;98406.91;6016586;23;20204;-91
2022/12/13 03:41:09;;;;;;;4.27;2.00;;;;;;;6.68;74.79;98412.78;6041011;23;20595;-91
2022/12/13 03:43:35;;;;;;;3.27;1.70;;;;;;;6.73;74.21;98414.22;6039959;23;20181;-90
2022/12/13 03:46:00;;;;;;;3.47;1.80;;;;;;;6.89;74.40;98423.91;6040078;23;20645;-90
2022/12/13 03:48:26;;;;;;;2.83;1.40;;;;;;;7.03;73.58;98422.31;6040922;23;20150;-89
2022/12/13 03:50:53;;;;;;;3.20;1.80;;;;;;;7.08;72.69;98432.50;6039770;23;20158;-90
2022/12/13 03:53:20;;;;;;;2.50;1.37;;;;;;;6.77;72.77;98444.44;6016591;23;20162;-91
2022/12/13 03:55:46;;;;;;;3.87;1.93;;;;;;;6.97;73.15;98440.03;6016202;23;20162;-90
2022/12/13 03:58:11;;;;;;;7.03;1.77;;;;;;;7.13;72.43;98443.53;6015902;23;20193;-90
2022/12/13 04:00:37;;;;;;;4.13;2.17;;;;;;;7.25;72.14;98451.59;6041264;23;20154;-90
2022/12/13 04:03:03;;;;;;;3.53;2.17;;;;;;;7.28;71.81;98450.59;6041144;23;20153;-90
2022/12/13 04:05:29;;;;;;;4.33;2.47;;;;;;;7.14;72.28;98453.03;6015899;23;20216;-89
2022/12/13 04:07:55;;;;;;;3.87;1.80;;;;;;;7.14;72.09;98453.03;6039727;23;20572;-91
2022/12/13 04:10:20;;;;;;;5.23;2.63;;;;;;;7.12;71.82;98447.06;6040808;23;20153;-89
2022/12/13 04:15:29;;;;;;;4.17;1.60;;;;;;;6.86;72.36;98447.50;6041590;23;20193;-90
2022/12/13 04:17:55;;;;;;;3.10;1.50;;;;;;;6.81;72.07;98460.75;6041205;23;20158;-92
2022/12/13 04:20:20;;;;;;;5.70;2.13;;;;;;;6.88;72.04;98458.69;6040145;23;20178;-90
2022/12/13 04:22:46;;;;;;;3.30;1.43;;;;;;;6.98;71.76;98457.31;6040820;23;20232;-90
2022/12/13 04:25:11;;;;;;;4.70;2.40;;;;;;;7.00;71.29;98445.06;6040903;23;20154;-89
2022/12/13 04:27:37;;;;;;;4.83;2.60;;;;;;;6.98;71.78;98460.78;6039526;23;20161;-90
2022/12/13 04:30:06;;;;;;;4.67;1.80;;;;;;;7.01;71.07;98446.75;6040726;23;20150;-90
2022/12/13 04:32:31;;;;;;;2.67;1.40;;;;;;;7.10;71.02;98462.75;6039430;23;20158;-89
2022/12/13 04:34:56;;;;;;;4.77;2.63;;;;;;;7.14;71.04;98458.25;6015812;23;20589;-89
2022/12/13 04:37:22;;;;;;;4.30;2.63;;;;;;;7.15;70.47;98457.34;6040524;23;20150;-89
2022/12/13 04:39:48;;;;;;;4.43;2.17;;;;;;;7.26;70.05;98465.44;6039975;23;20241;-90
2022/12/13 04:42:14;;;;;;;4.30;2.33;;;;;;;7.37;70.11;98465.78;6015537;23;20466;-89
2022/12/13 04:44:39;;;;;;;3.73;1.70;;;;;;;7.40;69.96;98474.28;6040153;23;20158;-89
2022/12/13 04:47:05;;;;;;;4.83;2.40;;;;;;;7.46;69.38;98470.53;6040696;23;20165;-90
2022/12/13 04:49:30;;;;;;;4.07;2.23;;;;;;;7.31;69.88;98469.53;6039284;23;20160;-90
2022/12/13 04:51:57;;;;;;;3.77;2.00;;;;;;;7.38;69.71;98480.50;6040219;23;20153;-89
2022/12/13 04:54:22;;;;;;;3.30;2.07;;;;;;;7.34;69.36;98486.78;6015550;23;20576;-89
2022/12/13 04:56:48;;;;;;;3.93;2.00;;;;;;;7.37;69.66;98489.22;6039077;23;20164;-90
2022/12/13 04:59:14;;;;;;;5.10;2.87;;;;;;;7.34;69.17;98498.06;6040257;23;20181;-89
2022/12/13 05:01:40;;;;;;;3.60;2.07;;;;;;;7.31;69.37;98505.19;6040191;23;20186;-89
2022/12/13 05:04:05;;;;;;;6.27;2.87;;;;;;;7.42;69.39;98505.47;6040543;23;20158;-90
2022/12/13 05:06:31;;;;;;;9.27;3.73;;;;;;;7.42;69.55;98501.13;6040457;23;20579;-89
2022/12/13 05:08:56;;;;;;;5.80;2.53;;;;;;;7.41;68.66;98504.66;6038992;23;20157;-89
2022/12/13 05:11:22;;;;;;;4.00;1.70;;;;;;;7.24;68.58;98502.03;6040198;23;20149;-89
2022/12/13 05:13:47;;;;;;;20.73;9.13;;;;;;;7.03;69.07;98510.91;6040307;23;20626;-89
2022/12/13 05:16:14;;;;;;;9.37;2.93;;;;;;;6.81;69.22;98518.06;6040879;23;20153;-89
2022/12/13 05:18:41;;;;;;;6.17;3.23;;;;;;;6.81;69.62;98528.47;6040666;23;20260;-90
2022/12/13 05:21:09;;;;;;;6.43;2.77;;;;;;;6.97;68.71;98528.59;6015371;23;20221;-89
2022/12/13 05:23:34;;;;;;;10.27;3.07;;;;;;;6.82;69.07;98540.56;6040313;23;20150;-90
2022/12/13 05:26:00;;;;;;;11.50;4.13;;;;;;;6.68;69.08;98543.81;6040186;23;20191;-90
2022/12/13 05:28:27;;;;;;;14.27;5.13;;;;;;;6.67;69.29;98546.50;6040496;23;20153;-89
2022/12/13 05:30:55;;;;;;;15.53;6.70;;;;;;;6.81;68.84;98544.94;6040520;23;20156;-90
2022/12/13 05:33:21;;;;;;;8.00;4.30;;;;;;;6.86;68.25;98546.50;6040810;23;20160;-90
2022/12/13 05:35:46;;;;;;;6.47;2.77;;;;;;;6.89;67.88;98552.41;6015403;23;20165;-89
2022/12/13 05:38:12;;;;;;;3.20;1.97;;;;;;;6.75;69.12;98563.47;6040311;23;20182;-90
2022/12/13 05:40:37;;;;;;;6.43;2.67;;;;;;;6.78;68.78;98565.09;6040168;23;20173;-89
2022/12/13 05:43:03;;;;;;;6.10;2.27;;;;;;;6.85;69.45;98573.44;6040164;23;20209;-89
2022/12/13 05:45:30;;;;;;;5.20;2.83;;;;;;;6.92;68.71;98586.09;6015547;23;20157;-90
2022/12/13 05:47:56;;;;;;;5.07;2.10;;;;;;;6.95;67.99;98577.31;6040305;23;20157;-90
2022/12/13 05:50:21;;;;;;;5.27;2.43;;;;;;;6.97;67.58;98581.53;6038926;23;20157;-90
2022/12/13 05:52:47;;;;;;;7.37;2.70;;;;;;;6.98;66.84;98591.03;6038825;23;20160;-90
2022/12/13 05:55:12;;;;;;;5.27;2.90;;;;;;;6.88;67.44;98588.94;6039931;23;20225;-90
2022/12/13 05:57:38;;;;;;;5.57;2.60;;;;;;;6.87;67.56;98595.03;6040132;23;20469;-89
2022/12/13 06:00:06;;;;;;;5.37;2.50;;;;;;;7.07;66.98;98602.81;6039805;23;20180;-90
2022/12/13 06:02:45;;;;;;;4.37;1.90;;;;;;;7.15;66.48;98596.31;6039889;23;20157;-90
2022/12/13 06:05:10;;;;;;;6.13;2.43;;;;;;;7.05;66.34;98609.84;6038819;23;20239;-90
2022/12/13 06:07:37;;;;;;;8.20;3.47;;;;;;;6.99;66.08;98605.75;6039872;23;20244;-91
2022/12/13 06:10:04;;;;;;;8.27;3.20;;;;;;;6.99;66.84;98600.56;6039793;23;20150;-90
2022/12/13 06:12:30;;;;;;;3.43;1.93;;;;;;;6.81;66.18;98606.63;6039695;23;20152;-90
2022/12/13 06:14:55;;;;;;;6.70;3.00;;;;;;;6.74;66.79;98610.41;6015021;23;20173;-90
2022/12/13 06:17:23;;;;;;;6.03;2.90;;;;;;;6.84;66.31;98611.66;6039795;23;20152;-90
2022/12/13 06:19:50;;;;;;;4.73;2.17;;;;;;;6.74;65.93;98611.25;6014858;23;20271;-91
2022/12/13 06:22:16;;;;;;;4.17;2.00;;;;;;;6.91;66.12;98623.50;6039511;23;20172;-90
2022/12/13 06:24:42;;;;;;;5.90;2.17;;;;;;;7.05;65.93;98628.09;6039710;23;20231;-90
2022/12/13 06:27:07;;;;;;;5.27;2.30;;;;;;;7.11;66.92;98633.00;6039573;23;20195;-90
2022/12/13 06:29:33;;;;;;;4.33;2.10;;;;;;;7.19;66.49;98641.31;6014850;23;20150;-91
2022/12/13 06:32:01;;;;;;;4.90;1.87;;;;;;;7.30;66.75;98642.50;6039594;23;20164;-91
2022/12/13 06:34:27;;;;;;;3.37;1.93;;;;;;;7.45;65.96;98640.91;6038374;23;20162;-89
2022/12/13 06:36:53;;;;;;;4.67;2.60;;;;;;;7.44;65.30;98642.66;6014828;23;20166;-90
2022/12/13 06:39:18;;;;;;;6.50;3.23;;;;;;;7.46;66.20;98642.63;6040118;23;20182;-90
2022/12/13 06:41:44;;;;;;;11.97;4.17;;;;;;;7.56;65.68;98638.66;6039600;23;20189;-91
2022/12/13 06:44:10;;;;;;;8.70;3.47;;;;;;;7.66;64.81;98639.88;6038625;23;20201;-92
2022/12/13 06:46:35;;;;;;;11.53;4.13;;;;;;;7.68;64.14;98648.47;6038449;23;20184;-91
2022/12/13 06:49:01;;;;;;;4.93;2.50;;;;;;;7.75;64.51;98656.84;6014848;23;20237;-90
2022/12/13 06:51:26;;;;;;;6.80;2.70;;;;;;;7.81;64.42;98662.59;6014790;23;20158;-90
2022/12/13 06:53:52;;;;;;;5.43;2.43;;;;;;;7.75;64.89;98664.69;6039561;23;20153;-90
2022/12/13 06:56:18;;;;;;;7.10;2.93;;;;;;;7.76;64.72;98663.75;6039679;23;20150;-90
2022/12/13 06:58:43;;;;;;;5.10;2.40;;;;;;;7.70;64.63;98670.13;6014632;23;20594;-90
2022/12/13 07:01:12;;;;;;;5.13;2.20;;;;;;;7.70;64.57;98670.13;6014550;23;20168;-90
2022/12/13 07:03:38;;;;;;;9.67;3.27;;;;;;;7.71;63.12;98679.63;6014696;23;20162;-90
2022/12/13 07:06:07;;;;;;;5.13;2.70;;;;;;;7.57;64.12;98692.50;6039596;23;20236;-90
2022/12/13 07:08:34;;;;;;;4.77;2.83;;;;;;;7.61;62.95;98693.19;6039149;23;20558;-92
2022/12/13 07:11:00;;;;;;;5.33;2.10;;;;;;;7.57;62.81;98681.22;6016685;23;20158;-90
2022/12/13 07:13:26;;;;;;;5.27;2.23;;;;;;;7.56;62.52;98689.94;6040330;23;20591;-90
2022/12/13 07:15:51;;;;;;;5.87;3.20;;;;;;;7.62;63.27;98682.69;6016432;23;20164;-91
2022/12/13 07:18:17;;;;;;;4.00;2.40;;;;;;;7.73;63.42;98690.81;6040134;23;20267;-90
2022/12/13 07:20:43;;;;;;;6.00;2.70;;;;;;;7.83;63.12;98686.03;6041340;23;20232;-90
2022/12/13 07:23:09;;;;;;;5.07;2.20;;;;;;;7.95;63.45;98691.50;6041344;23;20161;-90
2022/12/13 07:25:35;;;;;;;7.60;3.20;;;;;;;7.98;63.79;98696.56;6016560;23;20282;-91
2022/12/13 07:28:04;;;;;;;5.27;2.43;;;;;;;7.79;63.00;98702.72;6041587;23;20529;-90
2022/12/13 07:30:34;;;;;;;6.83;2.87;;;;;;;7.91;63.09;98709.97;6039842;23;20157;-91
2022/12/13 07:33:01;;;;;;;5.00;2.63;;;;;;;8.03;62.81;98710.22;6041606;23;20198;-90
2022/12/13 07:35:26;;;;;;;5.50;2.77;;;;;;;7.99;61.83;98700.84;6016557;23;20173;-91
2022/12/13 07:37:51;;;;;;;6.17;2.53;;;;;;;7.91;60.83;98702.97;6041272;23;20219;-91
2022/12/13 07:40:17;;;;;;;9.03;2.70;;;;;;;7.91;61.63;98697.75;6016497;23;20582;-93
2022/12/13 07:42:52;;;;;;;5.03;2.77;;;;;;;7.81;61.69;98703.50;6039866;23;20212;-91
2022/12/13 07:45:18;;;;;;;5.77;2.87;;;;;;;7.68;61.15;98718.91;6015893;23;20201;-90
2022/12/13 07:47:43;;;;;;;5.60;3.27;;;;;;;7.78;61.99;98717.53;6016362;23;20158;-91
2022/12/13 07:50:10;;;;;;;6.87;3.40;;;;;;;7.89;62.46;98715.25;6041048;23;20470;-90
2022/12/13 07:52:35;;;;;;;5.00;2.37;;;;;;;8.03;61.88;98718.06;6041657;23;20659;-91
2022/12/13 07:55:01;;;;;;;7.53;2.57;;;;;;;8.18;62.31;98728.66;6039752;23;20181;-91
2022/12/13 07:57:26;;;;;;;7.00;3.00;;;;;;;8.25;60.85;98724.84;6041003;23;20233;-90
2022/12/13 07:59:52;;;;;;;9.10;4.20;;;;;;;8.30;60.97;98736.78;6040323;23;20210;-91
2022/12/13 08:02:17;;;;;;;6.23;3.20;;;;;;;8.21;60.82;98731.09;6039867;23;20153;-90
2022/12/13 08:04:43;;;;;;;6.70;2.67;;;;;;;8.12;62.26;98742.03;6039615;23;20158;-90
2022/12/13 08:07:09;;;;;;;4.83;1.93;;;;;;;8.30;61.87;98747.22;6040855;23;20229;-90
2022/12/13 08:09:35;;;;;;;5.07;2.83;;;;;;;8.35;61.37;98749.59;6040930;23;20157;-91
2022/12/13 08:12:02;;;;;;;4.70;2.00;;;;;;;8.46;60.51;98752.53;6041205;23;20256;-91
2022/12/13 08:14:27;;;;;;;6.40;2.83;;;;;;;8.52;60.96;98758.25;6039615;23;20158;-91
2022/12/13 08:16:52;;;;;;;5.37;2.63;;;;;;;8.68;61.32;98755.72;6041058;23;20164;-91
2022/12/13 08:19:18;;;;;;;5.17;2.83;;;;;;;8.70;59.84;98766.94;6039385;23;20209;-90
2022/12/13 08:21:44;;;;;;;6.10;2.20;;;;;;;8.58;59.04;98772.78;6015902;23;20155;-91
2022/12/13 08:24:09;;;;;;;6.47;2.83;;;;;;;8.75;58.43;98769.34;6016450;23;20473;-90
2022/12/13 08:26:35;;;;;;;6.33;2.80;;;;;;;8.73;59.72;98772.00;6040694;23;20165;-90
2022/12/13 08:29:01;;;;;;;3.47;2.03;;;;;;;8.77;57.91;98768.34;6039665;23;20158;-91
2022/12/13 08:31:26;;;;;;;7.43;2.80;;;;;;;8.70;57.97;98772.16;6015967;23;20175;-91
2022/12/13 08:33:52;;;;;;;13.80;3.17;;;;;;;8.65;57.94;98774.16;6040793;23;20154;-90
2022/12/13 08:36:17;;;;;;;6.37;2.67;;;;;;;8.84;58.76;98780.16;6040498;23;20526;-90
2022/12/13 08:38:44;;;;;;;6.97;2.63;;;;;;;9.03;57.26;98774.81;6039293;23;20264;-90
2022/12/13 08:41:10;;;;;;;10.47;2.80;;;;;;;9.02;57.62;98775.72;6015785;23;20159;-91
2022/12/13 08:43:36;;;;;;;6.90;3.27;;;;;;;9.16;57.80;98771.50;6040476;23;20210;-91
2022/12/13 08:46:03;;;;;;;5.80;2.80;;;;;;;9.22;57.11;98763.31;6015970;23;20241;-91
2022/12/13 08:48:31;;;;;;;6.57;2.60;;;;;;;9.27;56.65;98760.47;6015914;23;20226;-92
2022/12/13 08:51:05;;;;;;;5.63;3.00;;;;;;;9.33;55.98;98754.06;6015749;23;20161;-91
2022/12/13 08:53:31;;;;;;;6.57;2.97;;;;;;;9.22;55.97;98755.47;6039340;23;20151;-90
2022/12/13 08:56:01;;;;;;;6.17;2.63;;;;;;;9.09;56.23;98759.66;6040454;23;20233;-91
2022/12/13 08:58:27;;;;;;;8.10;3.27;;;;;;;9.03;55.90;98754.75;6015331;23;20221;-92
2022/12/13 09:00:53;;;;;;;6.63;3.33;;;;;;;9.14;55.00;98752.44;6015952;23;20628;-90
2022/12/13 09:03:18;;;;;;;5.47;3.30;;;;;;;9.06;53.81;98749.38;6040813;23;20253;-91
2022/12/13 09:05:44;;;;;;;5.40;2.83;;;;;;;8.85;52.99;98747.03;6014027;23;20162;-92
2022/12/13 09:08:10;;;;;;;6.13;3.37;;;;;;;8.61;54.13;98752.59;6038405;23;20156;-91
2022/12/13 09:10:35;;;;;;;8.67;3.20;;;;;;;8.63;54.67;98752.50;6040532;23;20153;-92
2022/12/13 09:13:01;;;;;;;5.43;2.50;;;;;;;8.57;54.53;98748.44;6015827;23;20162;-92
2022/12/13 09:15:31;;;;;;;4.00;2.27;;;;;;;8.37;54.98;98748.59;6015754;23;20185;-94
2022/12/13 09:17:59;;;;;;;3.63;2.00;;;;;;;8.44;55.21;98741.28;6039056;23;20508;-92
2022/12/13 09:20:25;;;;;;;8.07;3.27;;;;;;;8.34;55.79;98745.28;6040268;23;20480;-91
2022/12/13 09:22:50;;;;;;;5.80;2.73;;;;;;;8.40;54.99;98744.97;6039607;23;20165;-92
2022/12/13 09:25:19;;;;;;;4.07;2.77;;;;;;;8.60;56.17;98734.38;6015379;23;20157;-92
2022/12/13 09:27:44;;;;;;;6.47;3.40;;;;;;;8.69;55.37;98723.47;6039236;23;20158;-92
2022/12/13 09:30:14;;;;;;;8.70;3.63;;;;;;;8.49;54.24;98732.28;6015434;23;20155;-92
2022/12/13 09:32:40;;;;;;;9.37;3.70;;;;;;;8.37;54.17;98724.25;6015238;23;20154;-91
2022/12/13 09:35:07;;;;;;;7.50;2.90;;;;;;;8.53;53.92;98719.94;6039360;23;20167;-91
2022/12/13 09:37:33;;;;;;;5.33;2.90;;;;;;;8.82;54.82;98713.22;6015089;23;20556;-91
2022/12/13 09:40:02;;;;;;;9.90;3.20;;;;;;;8.70;52.75;98709.44;6015711;23;20194;-91
2022/12/13 09:42:30;;;;;;;5.63;2.80;;;;;;;8.85;52.36;98713.91;6038873;23;20655;-91
2022/12/13 09:44:59;;;;;;;5.27;2.57;;;;;;;9.05;52.81;98702.38;6039377;23;20150;-92
2022/12/13 09:47:33;;;;;;;4.93;2.70;;;;;;;8.72;50.85;98707.63;6015154;23;20245;-93
2022/12/13 09:50:09;;;;;;;5.00;2.77;;;;;;;8.84;51.27;98698.28;6040431;23;20570;-91
2022/12/13 09:52:39;;;;;;;6.63;2.47;;;;;;;8.64;51.44;98705.41;6040127;23;20139;-91
2022/12/13 09:55:15;;;;;;;7.70;3.03;;;;;;;8.84;51.23;98693.91;6014924;23;20158;-91
2022/12/13 09:57:42;;;;;;;5.20;2.93;;;;;;;8.96;50.06;98700.28;6015534;23;20238;-92
2022/12/13 10:00:16;;;;;;;11.07;3.00;;;;;;;8.98;50.38;98694.03;6014978;23;20221;-91
2022/12/13 10:02:54;;;;;;;10.20;2.60;;;;;;;8.86;49.97;98681.59;6015056;23;20159;-92
2022/12/13 10:05:20;;;;;;;7.33;3.10;;;;;;;8.60;50.13;98675.13;6039116;23;20575;-91
2022/12/13 10:07:55;;;;;;;;;;;;;;;;;;;;;
2022/12/13 10:10:21;;;;;;;4.53;2.47;;;;;;;8.64;50.90;98678.44;6039920;23;20205;-92
2022/12/13 10:12:57;;;;;;;9.73;3.47;;;;;;;8.75;51.02;98673.50;6015141;23;20623;-92
2022/12/13 10:15:25;;;;;;;6.93;3.07;;;;;;;8.82;50.95;98668.78;6015337;23;20224;-90
2022/12/13 10:17:52;;;;;;;6.80;2.90;;;;;;;8.93;51.86;98663.84;6014845;23;20158;-91
2022/12/13 10:20:20;;;;;;;6.00;2.57;;;;;;;8.75;50.16;98673.50;6038607;23;20190;-91
2022/12/13 10:22:47;;;;;;;5.17;2.40;;;;;;;8.77;49.85;98679.50;6039777;23;20154;-90
2022/12/13 10:25:13;;;;;;;8.27;3.13;;;;;;;8.94;50.49;98687.28;6014713;23;20169;-91
2022/12/13 10:27:39;;;;;;;4.47;2.13;;;;;;;9.15;52.15;98680.91;6038614;23;20159;-91
2022/12/13 10:30:11;;;;;;;4.67;2.20;;;;;;;9.21;50.63;98685.81;6039527;23;20568;-91
2022/12/13 10:32:47;;;;;;;5.27;2.60;;;;;;;9.30;50.15;98684.47;6014891;23;20216;-92
2022/12/13 10:35:36;;;;;;;6.70;2.57;;;;;;;9.27;50.34;98680.25;6014727;23;20593;-92
2022/12/13 10:38:25;;;;;;;6.60;3.13;;;;;;;9.20;50.23;98684.09;6014764;23;20209;-91
2022/12/13 10:40:51;;;;;;;6.27;2.57;;;;;;;9.19;51.00;98677.22;6016062;23;20155;-90
2022/12/13 10:43:19;;;;;;;8.80;3.43;;;;;;;9.22;50.57;98670.97;6038184;23;20248;-91
2022/12/13 10:46:00;;;;;;;5.70;2.60;;;;;;;9.37;50.80;98679.72;6040163;23;20158;-91
2022/12/13 10:48:47;;;;;;;7.03;2.80;;;;;;;9.46;50.14;98682.66;6014733;23;20157;-91
2022/12/13 10:51:16;;;;;;;5.87;3.00;;;;;;;9.49;49.57;98685.13;6014199;23;20159;-89
2022/12/13 10:53:50;;;;;;;6.30;2.67;;;;;;;9.43;48.24;98689.88;6039275;23;20504;-90
2022/12/13 10:56:18;;;;;;;6.37;3.30;;;;;;;9.40;48.86;98690.88;6014870;23;20157;-90
2022/12/13 10:58:45;;;;;;;85.00;30.43;;;;;;;9.51;49.38;98679.81;6039122;23;20183;-89
2022/12/13 11:01:31;;;;;;;12.30;4.33;;;;;;;9.51;47.95;98678.03;6038032;23;20242;-90
2022/12/13 11:04:02;;;;;;;5.27;3.13;;;;;;;9.66;47.49;98671.13;6037938;23;20502;-90
2022/12/13 11:06:48;;;;;;;6.73;2.70;;;;;;;9.36;47.51;98672.81;6038342;23;20190;-90
2022/12/13 11:09:15;;;;;;;15.23;5.50;;;;;;;9.40;48.94;98685.66;6039369;23;20135;-91
2022/12/13 11:11:43;;;;;;;20.97;9.07;;;;;;;9.58;48.35;98684.63;6039337;23;20218;-91
2022/12/13 11:14:18;;;;;;;5.40;2.70;;;;;;;9.73;49.01;98685.53;6038146;23;20156;-90
2022/12/13 11:16:48;;;;;;;5.53;2.90;;;;;;;9.80;47.24;98673.81;6015214;23;20230;-90
2022/12/13 11:19:45;;;;;;;9.73;3.27;;;;;;;9.82;48.74;98669.31;6014555;23;20208;-90
2022/12/13 11:22:20;;;;;;;8.17;3.20;;;;;;;9.89;47.78;98660.19;6013676;23;20192;-91
2022/12/13 11:24:51;;;;;;;5.77;2.53;;;;;;;9.60;47.64;98651.38;6014916;23;20211;-91
2022/12/13 11:27:29;;;;;;;7.00;3.13;;;;;;;9.92;48.08;98646.91;6014627;23;20149;-92
2022/12/13 11:30:03;;;;;;;16.67;6.47;;;;;;;10.03;47.54;98639.28;6039811;23;20137;-93
2022/12/13 11:32:52;;;;;;;8.37;3.17;;;;;;;10.05;46.34;98642.66;6039611;23;20220;-90
2022/12/13 11:35:28;;;;;;;6.20;2.40;;;;;;;10.09;46.69;98648.56;6038558;23;20185;-92
2022/12/13 11:38:02;;;;;;;4.90;2.70;;;;;;;10.01;46.96;98650.78;6013916;23;20148;-90
2022/12/13 11:41:09;;;;;;;6.70;2.83;;;;;;;10.15;46.50;98650.84;6040066;23;20142;-91
2022/12/13 11:43:57;;;;;;;6.73;3.10;;;;;;;10.02;47.12;98652.47;6035443;23;20207;-92
2022/12/13 11:47:02;;;;;;;7.83;3.47;;;;;;;10.23;46.19;98657.31;6038707;23;20656;-92
2022/12/13 11:49:44;;;;;;;5.93;2.97;;;;;;;10.10;46.49;98658.94;6038406;23;20147;-92
2022/12/13 11:52:39;;;;;;;5.87;2.50;;;;;;;10.07;47.47;98656.50;6011399;23;20308;-91
2022/12/13 11:55:18;;;;;;;6.60;2.73;;;;;;;10.04;47.38;98656.66;6014876;23;20211;-91
2022/12/13 11:58:13;;;;;;;5.90;2.73;;;;;;;10.02;46.76;98648.06;6011511;23;20232;-91